createdAt,value
2022-08-12T00:01:01.273Z,19.29
2022-08-12T00:03:46.687Z,19.23
2022-08-12T00:06:32.864Z,19.18
2022-08-12T00:09:20.253Z,19.15
2022-08-12T00:12:08.831Z,19.04
2022-08-12T00:14:56.046Z,18.99
2022-08-12T00:17:42.343Z,18.96
2022-08-12T00:20:29.723Z,18.94
2022-08-12T00:23:15.952Z,18.91
2022-08-12T00:26:23.239Z,18.88
2022-08-12T00:29:10.653Z,18.84
2022-08-12T00:31:57.676Z,18.82
2022-08-12T00:34:43.291Z,18.79
2022-08-12T00:37:28.706Z,18.76
2022-08-12T00:40:14.727Z,18.73
2022-08-12T00:42:42.268Z,18.69
2022-08-12T00:45:11.293Z,18.66
2022-08-12T00:47:41.021Z,18.62
2022-08-12T00:50:17.774Z,18.59
2022-08-12T00:52:46.347Z,18.56
2022-08-12T00:55:14.416Z,18.52
2022-08-12T00:57:47.899Z,18.49
2022-08-12T01:00:19.378Z,18.45
2022-08-12T01:02:52.090Z,18.40
2022-08-12T01:05:40.300Z,18.36
2022-08-12T01:08:25.918Z,18.31
2022-08-12T01:11:14.021Z,18.28
2022-08-12T01:13:47.307Z,18.25
2022-08-12T01:16:18.046Z,18.21
2022-08-12T01:18:47.600Z,18.15
2022-08-12T01:21:36.188Z,18.10
2022-08-12T01:24:28.874Z,18.04
2022-08-12T01:27:03.452Z,17.99
2022-08-12T01:29:42.714Z,17.94
2022-08-12T01:32:14.509Z,17.90
2022-08-12T01:34:47.733Z,17.87
2022-08-12T01:37:20.354Z,17.84
2022-08-12T01:40:33.882Z,17.81
2022-08-12T01:42:45.913Z,17.75
2022-08-12T01:45:14.870Z,17.71
2022-08-12T01:48:05.172Z,17.67
2022-08-12T01:50:43.154Z,17.61
2022-08-12T01:53:13.300Z,17.57
2022-08-12T01:55:43.520Z,17.54
2022-08-12T01:58:24.203Z,17.48
2022-08-12T02:00:59.398Z,17.44
2022-08-12T02:04:03.546Z,17.38
2022-08-12T02:06:54.718Z,17.32
2022-08-12T02:10:05.252Z,17.27
2022-08-12T02:12:47.800Z,17.20
2022-08-12T02:15:28.628Z,17.15
2022-08-12T02:18:05.561Z,17.09
2022-08-12T02:20:52.403Z,17.05
2022-08-12T02:23:25.543Z,16.99
2022-08-12T02:25:57.042Z,16.96
2022-08-12T02:28:25.379Z,16.91
2022-08-12T02:30:55.602Z,16.88
2022-08-12T02:33:24.189Z,16.81
2022-08-12T02:35:52.522Z,16.77
2022-08-12T02:38:22.807Z,16.73
2022-08-12T02:40:54.855Z,16.70
2022-08-12T02:43:29.588Z,16.67
2022-08-12T02:46:04.551Z,16.63
2022-08-12T02:48:36.081Z,16.59
2022-08-12T02:51:07.057Z,16.55
2022-08-12T02:53:37.240Z,16.50
2022-08-12T02:56:07.070Z,16.46
2022-08-12T02:58:41.381Z,16.44
2022-08-12T03:01:17.434Z,16.39
2022-08-12T03:03:49.590Z,16.36
2022-08-12T03:06:22.815Z,16.33
2022-08-12T03:08:57.402Z,16.31
2022-08-12T03:11:31.228Z,16.29
2022-08-12T03:14:03.685Z,16.26
2022-08-12T03:16:34.077Z,16.24
2022-08-12T03:19:07.209Z,16.21
2022-08-12T03:21:52.924Z,16.16
2022-08-12T03:24:27.427Z,16.14
2022-08-12T03:27:00.403Z,16.10
2022-08-12T03:29:32.819Z,16.08
2022-08-12T03:32:35.799Z,16.05
2022-08-12T03:35:07.487Z,16.01
2022-08-12T03:37:37.685Z,15.99
2022-08-12T03:40:08.878Z,15.95
2022-08-12T03:42:41.543Z,15.94
2022-08-12T03:45:42.935Z,15.91
2022-08-12T03:48:40.093Z,15.86
2022-08-12T03:51:26.590Z,15.83
2022-08-12T03:54:12.717Z,15.80
2022-08-12T03:56:58.589Z,15.78
2022-08-12T03:59:44.729Z,15.74
2022-08-12T04:02:15.476Z,15.73
2022-08-12T04:04:46.738Z,15.71
2022-08-12T04:07:18.393Z,15.70
2022-08-12T04:09:47.620Z,15.68
2022-08-12T04:12:33.722Z,15.67
2022-08-12T04:15:02.878Z,15.66
2022-08-12T04:17:32.366Z,15.65
2022-08-12T04:20:01.626Z,15.64
2022-08-12T04:22:30.940Z,15.63
2022-08-12T04:25:01.473Z,15.64
2022-08-12T04:27:31.872Z,15.61
2022-08-12T04:30:30.689Z,15.61
2022-08-12T04:32:50.801Z,15.60
2022-08-12T04:35:20.134Z,15.59
2022-08-12T04:37:58.451Z,15.59
2022-08-12T04:40:32.589Z,15.58
2022-08-12T04:43:03.531Z,15.59
2022-08-12T04:45:33.030Z,15.58
2022-08-12T04:48:02.639Z,15.60
2022-08-12T04:50:37.058Z,15.61
2022-08-12T04:53:08.007Z,15.62
2022-08-12T04:55:38.528Z,15.63
2022-08-12T04:58:06.734Z,15.65
2022-08-12T05:00:35.402Z,15.69
2022-08-12T05:03:06.370Z,15.73
2022-08-12T05:05:37.056Z,15.76
2022-08-12T05:08:07.948Z,15.79
2022-08-12T05:10:36.276Z,15.82
2022-08-12T05:13:11.154Z,15.84
2022-08-12T05:16:04.715Z,15.89
2022-08-12T05:18:29.657Z,15.95
2022-08-12T05:20:59.942Z,15.99
2022-08-12T05:23:28.730Z,16.05
2022-08-12T05:25:57.548Z,16.08
2022-08-12T05:28:27.171Z,16.14
2022-08-12T05:30:56.545Z,16.21
2022-08-12T05:33:31.607Z,16.25
2022-08-12T05:36:00.999Z,16.33
2022-08-12T05:38:46.672Z,16.40
2022-08-12T05:41:20.479Z,16.59
2022-08-12T05:43:51.205Z,16.75
2022-08-12T05:46:19.799Z,16.81
2022-08-12T05:48:49.493Z,16.88
2022-08-12T05:51:19.286Z,16.94
2022-08-12T05:53:48.379Z,17.01
2022-08-12T05:56:24.695Z,17.09
2022-08-12T05:58:54.663Z,17.15
2022-08-12T06:02:12.762Z,17.24
2022-08-12T06:04:14.358Z,17.32
2022-08-12T06:06:43.796Z,17.39
2022-08-12T06:09:12.497Z,17.48
2022-08-12T06:12:04.675Z,17.55
2022-08-12T06:14:35.246Z,17.65
2022-08-12T06:17:03.950Z,17.74
2022-08-12T06:20:28.090Z,17.83
2022-08-12T06:22:21.834Z,17.91
2022-08-12T06:24:51.199Z,18.00
2022-08-12T06:27:19.393Z,18.09
2022-08-12T06:30:08.104Z,18.18
2022-08-12T06:32:35.440Z,18.26
2022-08-12T06:35:23.859Z,18.36
2022-08-12T06:37:57.224Z,18.47
2022-08-12T06:40:44.319Z,18.55
2022-08-12T06:43:13.647Z,18.65
2022-08-12T06:45:46.748Z,18.75
2022-08-12T06:48:15.447Z,18.83
2022-08-12T06:50:44.569Z,18.92
2022-08-12T06:53:14.079Z,19.02
2022-08-12T06:55:58.035Z,19.14
2022-08-12T06:58:26.996Z,19.27
2022-08-12T07:00:56.080Z,19.38
2022-08-12T07:03:27.891Z,19.50
2022-08-12T07:05:57.446Z,19.62
2022-08-12T07:08:29.345Z,19.74
2022-08-12T07:10:59.420Z,19.84
2022-08-12T07:13:29.138Z,19.95
2022-08-12T07:15:58.802Z,20.05
2022-08-12T07:18:31.305Z,20.14
2022-08-12T07:21:01.422Z,20.25
2022-08-12T07:23:33.572Z,20.36
2022-08-12T07:26:03.018Z,20.46
2022-08-12T07:28:34.965Z,20.57
2022-08-12T07:31:05.041Z,20.67
2022-08-12T07:33:33.104Z,20.80
2022-08-12T07:36:03.449Z,20.92
2022-08-12T07:38:34.736Z,21.05
2022-08-12T07:41:07.390Z,21.17
2022-08-12T07:43:39.368Z,21.30
2022-08-12T07:46:09.492Z,21.44
2022-08-12T07:48:40.840Z,21.59
2022-08-12T07:51:09.609Z,21.77
2022-08-12T07:53:59.854Z,21.94
2022-08-12T07:56:29.719Z,22.14
2022-08-12T07:58:59.247Z,22.33
2022-08-12T08:01:28.401Z,22.50
2022-08-12T08:04:18.793Z,22.66
2022-08-12T08:06:47.675Z,22.88
2022-08-12T08:09:19.367Z,23.08
2022-08-12T08:12:04.883Z,23.27
2022-08-12T08:14:33.002Z,23.49
2022-08-12T08:17:03.738Z,23.69
2022-08-12T08:19:33.721Z,23.88
2022-08-12T08:22:25.760Z,24.09
2022-08-12T08:25:35.013Z,24.30
2022-08-12T08:28:01.329Z,24.52
2022-08-12T08:30:30.629Z,24.72
2022-08-12T08:32:58.683Z,24.91
2022-08-12T08:35:32.807Z,25.10
2022-08-12T08:38:33.068Z,25.27
2022-08-12T08:42:17.945Z,25.44
2022-08-12T08:44:12.034Z,25.69
2022-08-12T08:46:40.774Z,25.86
2022-08-12T08:49:08.888Z,26.01
2022-08-12T08:51:37.142Z,26.11
2022-08-12T08:54:06.949Z,26.27
2022-08-12T08:56:43.973Z,26.42
2022-08-12T08:59:12.790Z,26.58
2022-08-12T09:01:41.288Z,26.69
2022-08-12T09:05:12.430Z,26.80
2022-08-12T09:10:02.762Z,27.15
2022-08-12T09:12:55.168Z,27.35
2022-08-12T09:15:35.577Z,27.52
2022-08-12T09:18:09.039Z,27.74
2022-08-12T09:20:38.746Z,27.88
2022-08-12T09:23:58.736Z,28.04
2022-08-12T09:28:52.882Z,28.35
2022-08-12T09:32:03.615Z,28.42
2022-08-12T09:34:31.065Z,28.58
2022-08-12T09:37:02.325Z,28.74
2022-08-12T09:40:05.801Z,28.83
2022-08-12T09:42:52.979Z,28.94
2022-08-12T09:46:06.327Z,29.00
2022-08-12T09:48:20.248Z,29.05
2022-08-12T09:50:51.653Z,29.15
2022-08-12T09:54:32.991Z,29.36
2022-08-12T09:56:59.460Z,29.64
2022-08-12T09:59:02.934Z,29.82
2022-08-12T10:01:34.630Z,29.95
2022-08-12T10:04:20.323Z,30.01
2022-08-12T10:06:55.552Z,30.15
2022-08-12T10:09:28.949Z,30.20
2022-08-12T10:12:33.025Z,30.29
2022-08-12T10:15:01.793Z,30.32
2022-08-12T10:17:31.559Z,30.31
2022-08-12T10:20:01.436Z,30.21
2022-08-12T10:22:36.837Z,30.30
2022-08-12T10:26:36.196Z,30.49
2022-08-12T10:28:32.602Z,30.63
2022-08-12T10:31:01.595Z,30.72
2022-08-12T10:33:55.040Z,30.77
2022-08-12T10:36:40.551Z,31.01
2022-08-12T10:39:44.267Z,31.19
2022-08-12T10:42:29.577Z,31.13
2022-08-12T10:45:01.242Z,31.09
2022-08-12T10:48:19.678Z,31.14
2022-08-12T10:50:35.692Z,31.20
2022-08-12T10:53:11.836Z,31.37
2022-08-12T10:55:55.533Z,31.54
2022-08-12T10:58:28.295Z,31.68
2022-08-12T11:01:50.291Z,31.67
2022-08-12T11:04:18.928Z,31.74
2022-08-12T11:07:05.356Z,31.72
2022-08-12T11:09:55.854Z,31.98
2022-08-12T11:12:55.549Z,32.23
2022-08-12T11:15:18.454Z,32.50
2022-08-12T11:17:54.116Z,32.73
2022-08-12T11:20:24.561Z,32.95
2022-08-12T11:23:03.877Z,33.02
2022-08-12T11:25:55.750Z,33.06
2022-08-12T11:28:33.823Z,33.10
2022-08-12T11:31:04.326Z,33.21
2022-08-12T11:34:04.240Z,33.31
2022-08-12T11:36:21.775Z,33.40
2022-08-12T11:38:52.877Z,33.59
2022-08-12T11:41:31.822Z,33.68
2022-08-12T11:44:29.185Z,33.55
2022-08-12T11:46:52.676Z,33.60
2022-08-12T11:49:30.496Z,33.61
2022-08-12T11:52:02.435Z,33.60
2022-08-12T11:54:33.547Z,33.57
2022-08-12T11:58:07.000Z,33.57
2022-08-12T12:03:44.257Z,33.72
2022-08-12T12:06:16.851Z,33.84
2022-08-12T12:08:51.082Z,33.86
2022-08-12T12:11:21.457Z,33.90
2022-08-12T12:14:06.246Z,34.09
2022-08-12T12:16:39.702Z,34.35
2022-08-12T12:19:11.578Z,34.61
2022-08-12T12:21:48.741Z,34.76
2022-08-12T12:24:21.699Z,34.93
2022-08-12T12:26:59.601Z,34.97
2022-08-12T12:30:18.102Z,35.09
2022-08-12T12:32:18.411Z,35.33
2022-08-12T12:35:18.133Z,35.70
2022-08-12T12:38:03.527Z,36.16
2022-08-12T12:40:35.232Z,36.48
2022-08-12T12:43:09.044Z,36.57
2022-08-12T12:45:39.426Z,36.75
2022-08-12T12:48:14.078Z,37.02
2022-08-12T12:50:45.872Z,36.78
2022-08-12T12:54:06.467Z,36.40
2022-08-12T12:56:16.602Z,35.99
2022-08-12T12:58:45.090Z,35.79
2022-08-12T13:01:26.629Z,36.10
2022-08-12T13:04:02.519Z,36.45
2022-08-12T13:06:34.230Z,36.83
2022-08-12T13:09:04.045Z,37.20
2022-08-12T13:11:41.250Z,37.52
2022-08-12T13:14:27.946Z,37.67
2022-08-12T13:16:58.508Z,37.53
2022-08-12T13:19:37.735Z,37.36
2022-08-12T13:22:21.446Z,37.28
2022-08-12T13:24:54.640Z,36.99
2022-08-12T13:27:35.663Z,36.58
2022-08-12T13:30:11.307Z,36.46
2022-08-12T13:32:42.478Z,36.48
2022-08-12T13:35:20.363Z,36.53
2022-08-12T13:38:02.800Z,36.58
2022-08-12T13:40:33.351Z,36.68
2022-08-12T13:43:05.539Z,36.49
2022-08-12T13:45:35.340Z,36.27
2022-08-12T13:48:06.327Z,36.35
2022-08-12T13:50:37.758Z,36.49
2022-08-12T13:53:24.172Z,36.83
2022-08-12T13:56:01.704Z,37.16
2022-08-12T13:58:34.605Z,37.09
2022-08-12T14:01:06.490Z,36.75
2022-08-12T14:03:50.112Z,36.85
2022-08-12T14:06:21.359Z,37.11
2022-08-12T14:08:55.774Z,37.18
2022-08-12T14:11:25.093Z,37.28
2022-08-12T14:14:04.632Z,37.41
2022-08-12T14:16:48.437Z,37.63
2022-08-12T14:19:24.860Z,37.43
2022-08-12T14:22:01.553Z,37.33
2022-08-12T14:24:40.401Z,37.25
2022-08-12T14:27:11.299Z,36.97
2022-08-12T14:30:04.334Z,36.80
2022-08-12T14:32:40.003Z,36.80
2022-08-12T14:35:09.900Z,36.73
2022-08-12T14:37:57.062Z,36.71
2022-08-12T14:40:29.775Z,36.59
2022-08-12T14:42:59.354Z,36.56
2022-08-12T14:45:45.543Z,36.55
2022-08-12T14:48:18.784Z,36.45
2022-08-12T14:51:02.864Z,36.36
2022-08-12T14:55:31.984Z,36.23
2022-08-12T14:59:56.302Z,35.90
2022-08-12T15:02:23.087Z,35.97
2022-08-12T15:04:59.024Z,35.86
2022-08-12T15:07:33.491Z,35.71
2022-08-12T15:10:31.634Z,35.74
2022-08-12T15:13:07.638Z,35.62
2022-08-12T15:15:44.146Z,35.35
2022-08-12T15:18:20.911Z,35.24
2022-08-12T15:20:51.066Z,34.95
2022-08-12T15:23:21.346Z,34.89
2022-08-12T15:26:02.522Z,34.84
2022-08-12T15:28:34.722Z,34.73
2022-08-12T15:31:21.274Z,34.60
2022-08-12T15:33:52.640Z,34.51
2022-08-12T15:36:50.257Z,34.39
2022-08-12T15:39:17.014Z,34.23
2022-08-12T15:41:50.227Z,34.07
2022-08-12T15:44:38.789Z,33.85
2022-08-12T15:47:09.762Z,33.67
2022-08-12T15:49:54.269Z,33.54
2022-08-12T15:52:28.559Z,33.44
2022-08-12T15:54:58.531Z,33.26
2022-08-12T15:57:27.777Z,33.07
2022-08-12T16:00:07.057Z,32.84
2022-08-12T16:02:50.608Z,32.56
2022-08-12T16:06:12.663Z,32.32
2022-08-12T16:08:18.461Z,32.04
2022-08-12T16:10:49.412Z,31.79
2022-08-12T16:13:32.350Z,31.57
2022-08-12T16:16:22.704Z,31.40
2022-08-12T16:18:59.612Z,31.24
2022-08-12T16:21:52.776Z,31.18
2022-08-12T16:24:18.845Z,31.10
2022-08-12T16:26:51.333Z,31.02
2022-08-12T16:29:26.545Z,30.94
2022-08-12T16:32:08.946Z,30.89
2022-08-12T16:34:42.083Z,30.77
2022-08-12T16:37:32.416Z,30.67
2022-08-12T16:40:06.013Z,30.58
2022-08-12T16:42:39.183Z,30.50
2022-08-12T16:45:13.950Z,30.39
2022-08-12T16:47:58.150Z,30.28
2022-08-12T16:50:31.370Z,30.19
2022-08-12T16:53:02.515Z,30.05
2022-08-12T16:55:42.275Z,29.92
2022-08-12T16:58:18.440Z,29.80
2022-08-12T17:00:57.027Z,29.69
2022-08-12T17:03:29.154Z,29.60
2022-08-12T17:05:58.449Z,29.49
2022-08-12T17:08:29.233Z,29.43
2022-08-12T17:10:57.487Z,29.35
2022-08-12T17:13:26.197Z,29.28
2022-08-12T17:16:05.510Z,29.20
2022-08-12T17:18:43.743Z,29.14
2022-08-12T17:21:40.821Z,29.06
2022-08-12T17:24:21.360Z,28.98
2022-08-12T17:26:54.151Z,28.90
2022-08-12T17:29:23.963Z,28.85
2022-08-12T17:32:02.938Z,28.78
2022-08-12T17:34:51.347Z,28.72
2022-08-12T17:37:19.358Z,28.65
2022-08-12T17:40:13.611Z,28.61
2022-08-12T17:42:38.472Z,28.54
2022-08-12T17:45:18.607Z,28.49
2022-08-12T17:48:05.395Z,28.45
2022-08-12T17:50:38.128Z,28.40
2022-08-12T17:53:10.146Z,28.33
2022-08-12T17:55:47.584Z,28.27
2022-08-12T17:58:35.617Z,28.22
2022-08-12T18:01:11.197Z,28.13
2022-08-12T18:04:04.397Z,28.07
2022-08-12T18:06:32.086Z,27.99
2022-08-12T18:09:08.881Z,27.94
2022-08-12T18:12:04.110Z,27.89
2022-08-12T18:14:37.143Z,27.78
2022-08-12T18:17:11.402Z,27.70
2022-08-12T18:20:06.839Z,27.61
2022-08-12T18:22:32.775Z,27.51
2022-08-12T18:25:03.734Z,27.43
2022-08-12T18:27:44.181Z,27.35
2022-08-12T18:30:21.067Z,27.25
2022-08-12T18:33:03.535Z,27.18
2022-08-12T18:35:47.719Z,27.12
2022-08-12T18:38:25.392Z,27.03
2022-08-12T18:41:20.738Z,26.97
2022-08-12T18:43:58.691Z,26.88
2022-08-12T18:46:35.754Z,26.82
2022-08-12T18:49:18.191Z,26.74
2022-08-12T18:51:55.157Z,26.63
2022-08-12T18:54:35.025Z,26.53
2022-08-12T18:57:15.418Z,26.44
2022-08-12T19:00:02.575Z,26.30
2022-08-12T19:02:39.893Z,26.20
2022-08-12T19:05:11.252Z,26.09
2022-08-12T19:08:00.211Z,25.98
2022-08-12T19:10:33.131Z,25.88
2022-08-12T19:13:23.129Z,25.77
2022-08-12T19:15:54.531Z,25.66
2022-08-12T19:18:29.582Z,25.56
2022-08-12T19:20:58.981Z,25.46
2022-08-12T19:23:34.938Z,25.36
2022-08-12T19:26:05.347Z,25.28
2022-08-12T19:28:38.834Z,25.18
2022-08-12T19:31:44.910Z,25.09
2022-08-12T19:34:50.475Z,24.98
2022-08-12T19:37:20.216Z,24.87
2022-08-12T19:40:09.396Z,24.78
2022-08-12T19:42:44.395Z,24.68
2022-08-12T19:45:15.657Z,24.60
2022-08-12T19:47:46.783Z,24.50
2022-08-12T19:50:20.114Z,24.43
2022-08-12T19:52:51.157Z,24.35
2022-08-12T19:55:21.844Z,24.27
2022-08-12T19:58:02.507Z,24.20
2022-08-12T20:00:35.335Z,24.11
2022-08-12T20:03:05.415Z,24.03
2022-08-12T20:06:04.941Z,23.95
2022-08-12T20:08:33.127Z,23.86
2022-08-12T20:12:12.608Z,23.77
2022-08-12T20:14:01.332Z,23.68
2022-08-12T20:16:57.362Z,23.61
2022-08-12T20:19:52.517Z,23.51
2022-08-12T20:22:33.313Z,23.42
2022-08-12T20:25:09.034Z,23.36
2022-08-12T20:28:05.315Z,23.30
2022-08-12T20:30:37.364Z,23.23
2022-08-12T20:33:18.681Z,23.17
2022-08-12T20:36:13.464Z,23.11
2022-08-12T20:38:38.345Z,23.04
2022-08-12T20:41:16.558Z,22.97
2022-08-12T20:43:47.297Z,22.89
2022-08-12T20:46:16.997Z,22.85
2022-08-12T20:48:54.287Z,22.78
2022-08-12T20:51:23.354Z,22.73
2022-08-12T20:53:58.324Z,22.67
2022-08-12T20:56:33.040Z,22.60
2022-08-12T20:59:04.495Z,22.55
2022-08-12T21:01:46.749Z,22.50
2022-08-12T21:04:35.917Z,22.45
2022-08-12T21:07:09.344Z,22.39
2022-08-12T21:09:44.319Z,22.34
2022-08-12T21:12:27.879Z,22.29
2022-08-12T21:15:16.990Z,22.21
2022-08-12T21:18:08.932Z,22.17
2022-08-12T21:20:44.530Z,22.10
2022-08-12T21:23:13.837Z,22.06
2022-08-12T21:25:45.715Z,22.00
2022-08-12T21:28:14.721Z,21.96
2022-08-12T21:31:11.007Z,21.90
2022-08-12T21:33:58.770Z,21.85
2022-08-12T21:36:22.811Z,21.80
2022-08-12T21:39:01.444Z,21.75
2022-08-12T21:41:50.125Z,21.70
2022-08-12T21:44:32.470Z,21.68
2022-08-12T21:47:18.264Z,21.64
2022-08-12T21:50:04.117Z,21.59
2022-08-12T21:52:36.808Z,21.54
2022-08-12T21:55:08.564Z,21.51
2022-08-12T21:57:50.941Z,21.46
2022-08-12T22:00:31.494Z,21.41
2022-08-12T22:03:17.391Z,21.36
2022-08-12T22:06:30.828Z,21.30
2022-08-12T22:09:15.944Z,21.24
2022-08-12T22:11:49.267Z,21.21
2022-08-12T22:14:25.409Z,21.17
2022-08-12T22:16:55.637Z,21.13
2022-08-12T22:19:23.799Z,21.08
2022-08-12T22:21:55.728Z,21.06
2022-08-12T22:24:26.936Z,21.03
2022-08-12T22:26:58.011Z,20.98
2022-08-12T22:29:43.503Z,20.96
2022-08-12T22:32:12.034Z,20.91
2022-08-12T22:34:40.515Z,20.88
2022-08-12T22:37:20.013Z,20.85
2022-08-12T22:39:49.121Z,20.80
2022-08-12T22:42:35.719Z,20.77
2022-08-12T22:45:23.532Z,20.73
2022-08-12T22:47:54.790Z,20.69
2022-08-12T22:50:28.089Z,20.66
2022-08-12T22:53:15.415Z,20.61
2022-08-12T22:55:59.269Z,20.58
2022-08-12T22:58:33.528Z,20.54
2022-08-12T23:01:03.459Z,20.52
2022-08-12T23:03:47.925Z,20.48
2022-08-12T23:06:20.035Z,20.44
2022-08-12T23:08:49.918Z,20.41
2022-08-12T23:11:23.573Z,20.35
2022-08-12T23:13:56.111Z,20.33
2022-08-12T23:16:31.580Z,20.28
2022-08-12T23:19:09.527Z,20.24
2022-08-12T23:22:03.792Z,20.21
2022-08-12T23:24:30.381Z,20.17
2022-08-12T23:27:18.241Z,20.14
2022-08-12T23:30:17.923Z,20.12
2022-08-12T23:32:37.157Z,20.09
2022-08-12T23:35:06.876Z,20.06
2022-08-12T23:37:47.442Z,20.03
2022-08-12T23:40:25.761Z,20.01
2022-08-12T23:42:55.235Z,19.97
2022-08-12T23:45:30.904Z,19.94
2022-08-12T23:48:00.247Z,19.89
2022-08-12T23:50:33.491Z,19.89
2022-08-12T23:53:05.713Z,19.84
2022-08-12T23:55:40.447Z,19.83
2022-08-12T23:58:21.253Z,19.79
